createdAt,value
2022-10-26T00:01:55.177Z,14.33
2022-10-26T00:04:21.619Z,14.32
2022-10-26T00:06:47.937Z,14.32
2022-10-26T00:09:14.274Z,14.31
2022-10-26T00:11:40.601Z,14.31
2022-10-26T00:14:06.909Z,14.29
2022-10-26T00:16:33.362Z,14.29
2022-10-26T00:18:59.834Z,14.28
2022-10-26T00:21:26.208Z,14.26
2022-10-26T00:23:52.683Z,14.25
2022-10-26T00:26:18.984Z,14.23
2022-10-26T00:28:45.329Z,14.22
2022-10-26T00:31:14.922Z,14.19
2022-10-26T00:33:41.733Z,14.19
2022-10-26T00:36:09.965Z,14.18
2022-10-26T00:38:36.775Z,14.16
2022-10-26T00:41:03.138Z,14.14
2022-10-26T00:43:29.387Z,14.13
2022-10-26T00:45:59.367Z,14.10
2022-10-26T00:48:34.150Z,14.08
2022-10-26T00:51:06.012Z,14.07
2022-10-26T00:53:32.938Z,14.07
2022-10-26T00:56:00.961Z,14.05
2022-10-26T00:58:28.189Z,14.04
2022-10-26T01:00:54.832Z,14.03
2022-10-26T01:03:25.115Z,14.00
2022-10-26T01:05:55.323Z,13.99
2022-10-26T01:08:21.690Z,14.00
2022-10-26T01:10:48.679Z,13.98
2022-10-26T01:13:17.495Z,13.96
2022-10-26T01:15:48.815Z,13.96
2022-10-26T01:18:21.204Z,13.92
2022-10-26T01:21:06.237Z,13.95
2022-10-26T01:24:00.531Z,13.89
2022-10-26T01:26:45.366Z,13.88
2022-10-26T01:29:35.904Z,13.86
2022-10-26T01:32:23.163Z,13.84
2022-10-26T01:35:22.606Z,13.84
2022-10-26T01:37:57.753Z,13.84
2022-10-26T01:40:31.354Z,13.83
2022-10-26T01:43:00.548Z,13.84
2022-10-26T01:45:28.645Z,13.82
2022-10-26T01:47:56.809Z,13.81
2022-10-26T01:50:24.335Z,13.80
2022-10-26T01:52:56.812Z,13.79
2022-10-26T01:55:47.292Z,13.75
2022-10-26T01:58:31.612Z,13.77
2022-10-26T02:01:33.189Z,13.75
2022-10-26T02:04:14.788Z,13.78
2022-10-26T02:06:46.579Z,13.77
2022-10-26T02:09:42.829Z,13.76
2022-10-26T02:12:26.310Z,13.78
2022-10-26T02:15:10.048Z,13.78
2022-10-26T02:18:00.726Z,13.79
2022-10-26T02:20:31.712Z,13.83
2022-10-26T02:23:00.972Z,13.84
2022-10-26T02:25:30.639Z,13.84
2022-10-26T02:28:02.362Z,13.84
2022-10-26T02:30:28.857Z,13.86
2022-10-26T02:32:57.881Z,13.87
2022-10-26T02:35:29.840Z,13.86
2022-10-26T02:37:59.533Z,13.89
2022-10-26T02:40:27.998Z,13.90
2022-10-26T02:42:58.077Z,13.90
2022-10-26T02:45:30.307Z,13.91
2022-10-26T02:47:57.791Z,13.92
2022-10-26T02:50:32.716Z,13.91
2022-10-26T02:53:10.324Z,13.94
2022-10-26T02:55:43.093Z,13.94
2022-10-26T02:58:20.135Z,13.93
2022-10-26T03:00:46.553Z,13.98
2022-10-26T03:03:13.811Z,13.98
2022-10-26T03:05:42.509Z,13.98
2022-10-26T03:08:09.371Z,14.02
2022-10-26T03:10:43.230Z,13.98
2022-10-26T03:13:10.900Z,14.00
2022-10-26T03:15:37.812Z,13.99
2022-10-26T03:18:04.726Z,13.99
2022-10-26T03:20:31.372Z,13.98
2022-10-26T03:22:57.899Z,13.98
2022-10-26T03:25:25.128Z,13.97
2022-10-26T03:28:02.271Z,13.92
2022-10-26T03:30:29.690Z,13.95
2022-10-26T03:32:56.527Z,13.94
2022-10-26T03:35:23.866Z,13.92
2022-10-26T03:37:50.729Z,13.91
2022-10-26T03:40:17.238Z,13.91
2022-10-26T03:42:43.708Z,13.90
2022-10-26T03:45:10.386Z,13.90
2022-10-26T03:47:47.439Z,13.86
2022-10-26T03:50:15.894Z,13.89
2022-10-26T03:52:42.255Z,13.90
2022-10-26T03:55:09.606Z,13.91
2022-10-26T03:57:44.455Z,13.91
2022-10-26T04:00:15.231Z,13.93
2022-10-26T04:02:48.457Z,13.95
2022-10-26T04:05:16.596Z,13.98
2022-10-26T04:07:43.275Z,14.00
2022-10-26T04:10:10.351Z,14.03
2022-10-26T04:12:38.111Z,14.06
2022-10-26T04:15:06.839Z,14.10
2022-10-26T04:17:33.311Z,14.13
2022-10-26T04:19:59.680Z,14.17
2022-10-26T04:22:26.004Z,14.19
2022-10-26T04:24:52.317Z,14.23
2022-10-26T04:27:18.635Z,14.24
2022-10-26T04:29:44.962Z,14.26
2022-10-26T04:32:11.262Z,14.29
2022-10-26T04:34:37.596Z,14.31
2022-10-26T04:37:03.956Z,14.33
2022-10-26T04:39:30.337Z,14.35
2022-10-26T04:41:56.684Z,14.38
2022-10-26T04:44:23.104Z,14.39
2022-10-26T04:46:49.468Z,14.41
2022-10-26T04:49:15.879Z,14.42
2022-10-26T04:51:42.201Z,14.44
2022-10-26T04:54:08.628Z,14.46
2022-10-26T04:56:35.045Z,14.48
2022-10-26T04:59:01.721Z,14.49
2022-10-26T05:01:28.178Z,14.51
2022-10-26T05:03:54.780Z,14.53
2022-10-26T05:06:21.685Z,14.55
2022-10-26T05:08:48.305Z,14.56
2022-10-26T05:11:14.803Z,14.58
2022-10-26T05:13:41.595Z,14.59
2022-10-26T05:16:08.076Z,14.60
2022-10-26T05:18:34.401Z,14.62
2022-10-26T05:21:00.785Z,14.61
2022-10-26T05:23:27.102Z,14.62
2022-10-26T05:25:55.413Z,14.59
2022-10-26T05:28:21.848Z,14.62
2022-10-26T05:30:48.201Z,14.61
2022-10-26T05:33:14.875Z,14.59
2022-10-26T05:35:41.222Z,14.59
2022-10-26T05:38:11.299Z,14.57
2022-10-26T05:40:37.657Z,14.58
2022-10-26T05:43:04.539Z,14.58
2022-10-26T05:45:30.878Z,14.58
2022-10-26T05:48:00.029Z,14.58
2022-10-26T05:50:29.096Z,14.59
2022-10-26T05:52:55.784Z,14.60
2022-10-26T05:55:22.480Z,14.61
2022-10-26T05:57:49.400Z,14.62
2022-10-26T06:00:17.700Z,14.63
2022-10-26T06:03:17.996Z,14.61
2022-10-26T06:05:56.152Z,14.61
2022-10-26T06:08:25.080Z,14.66
2022-10-26T06:10:53.727Z,14.67
2022-10-26T06:13:20.924Z,14.67
2022-10-26T06:16:15.134Z,14.64
2022-10-26T06:18:59.620Z,14.70
2022-10-26T06:21:57.048Z,14.69
2022-10-26T06:24:53.538Z,14.70
2022-10-26T06:27:28.893Z,14.73
2022-10-26T06:30:06.773Z,14.78
2022-10-26T06:32:34.065Z,14.81
2022-10-26T06:35:36.025Z,14.80
2022-10-26T06:38:07.372Z,14.85
2022-10-26T06:40:36.386Z,14.90
2022-10-26T06:43:02.891Z,14.94
2022-10-26T06:45:29.522Z,14.96
2022-10-26T06:48:20.150Z,14.95
2022-10-26T06:50:57.974Z,15.02
2022-10-26T06:53:30.989Z,15.06
2022-10-26T06:56:00.765Z,15.08
2022-10-26T06:58:37.381Z,15.14
2022-10-26T07:01:04.087Z,15.18
2022-10-26T07:03:30.473Z,15.20
2022-10-26T07:05:56.860Z,15.23
2022-10-26T07:08:23.768Z,15.26
2022-10-26T07:10:50.113Z,15.29
2022-10-26T07:13:16.511Z,15.33
2022-10-26T07:15:43.319Z,15.36
2022-10-26T07:18:10.178Z,15.40
2022-10-26T07:20:41.353Z,15.44
2022-10-26T07:23:12.384Z,15.49
2022-10-26T07:25:40.224Z,15.54
2022-10-26T07:28:10.020Z,15.59
2022-10-26T07:30:37.643Z,15.64
2022-10-26T07:33:07.185Z,15.69
2022-10-26T07:35:35.546Z,15.73
2022-10-26T07:38:02.594Z,15.81
2022-10-26T07:40:29.190Z,15.86
2022-10-26T07:42:59.706Z,15.90
2022-10-26T07:45:27.904Z,15.97
2022-10-26T07:47:54.598Z,16.02
2022-10-26T07:50:21.014Z,16.08
2022-10-26T07:52:47.699Z,16.13
2022-10-26T07:55:14.335Z,16.19
2022-10-26T07:57:40.667Z,16.25
2022-10-26T08:00:09.280Z,16.30
2022-10-26T08:02:36.099Z,16.35
2022-10-26T08:05:02.573Z,16.40
2022-10-26T08:07:29.078Z,16.46
2022-10-26T08:09:55.528Z,16.52
2022-10-26T08:12:21.953Z,16.58
2022-10-26T08:14:48.301Z,16.63
2022-10-26T08:17:14.633Z,16.69
2022-10-26T08:19:40.935Z,16.74
2022-10-26T08:22:07.441Z,16.78
2022-10-26T08:24:33.863Z,16.82
2022-10-26T08:27:00.194Z,16.86
2022-10-26T08:29:26.499Z,16.91
2022-10-26T08:31:52.988Z,16.96
2022-10-26T08:34:19.310Z,17.02
2022-10-26T08:36:45.673Z,17.06
2022-10-26T08:39:11.995Z,17.13
2022-10-26T08:41:41.538Z,17.20
2022-10-26T08:44:25.901Z,17.23
2022-10-26T08:46:58.336Z,17.34
2022-10-26T08:49:32.813Z,17.39
2022-10-26T08:52:02.300Z,17.50
2022-10-26T08:54:52.560Z,17.54
2022-10-26T08:57:25.837Z,17.66
2022-10-26T09:00:07.302Z,17.72
2022-10-26T09:02:33.637Z,17.86
2022-10-26T09:05:00.471Z,17.95
2022-10-26T09:07:48.424Z,18.00
2022-10-26T09:10:41.427Z,18.14
2022-10-26T09:13:20.407Z,18.24
2022-10-26T09:15:52.595Z,18.36
2022-10-26T09:21:32.712Z,18.51
2022-10-26T09:24:10.460Z,18.60
2022-10-26T09:26:45.755Z,18.68
2022-10-26T09:29:14.256Z,18.71
2022-10-26T09:31:47.367Z,18.72
2022-10-26T09:34:24.875Z,18.71
2022-10-26T09:36:54.140Z,18.72
2022-10-26T09:39:30.905Z,18.70
2022-10-26T09:42:04.496Z,18.72
2022-10-26T09:44:49.168Z,18.69
2022-10-26T09:47:37.934Z,18.69
2022-10-26T09:50:20.766Z,18.70
2022-10-26T09:52:47.569Z,18.76
2022-10-26T09:55:14.599Z,18.77
2022-10-26T09:57:46.636Z,18.76
2022-10-26T10:00:19.020Z,18.78
2022-10-26T10:02:50.774Z,18.85
2022-10-26T10:05:32.627Z,18.88
2022-10-26T10:08:18.936Z,18.92
2022-10-26T10:10:57.114Z,18.94
2022-10-26T10:13:26.696Z,19.01
2022-10-26T10:16:04.451Z,19.03
2022-10-26T10:18:31.635Z,19.13
2022-10-26T10:23:54.236Z,19.26
2022-10-26T10:26:20.958Z,19.37
2022-10-26T10:29:01.197Z,19.40
2022-10-26T10:31:30.102Z,19.54
2022-10-26T10:33:56.783Z,19.61
2022-10-26T10:36:26.344Z,19.68
2022-10-26T10:38:53.953Z,19.77
2022-10-26T10:41:36.254Z,19.83
2022-10-26T10:44:08.992Z,19.93
2022-10-26T10:46:37.512Z,20.06
2022-10-26T10:49:07.470Z,20.19
2022-10-26T10:51:40.164Z,20.39
2022-10-26T10:54:21.834Z,20.68
2022-10-26T10:56:54.725Z,21.11
2022-10-26T10:59:39.385Z,21.63
2022-10-26T11:02:50.345Z,22.20
2022-10-26T11:05:27.499Z,22.69
2022-10-26T11:08:09.821Z,23.02
2022-10-26T11:10:41.992Z,23.29
2022-10-26T11:13:23.992Z,23.44
2022-10-26T11:15:59.281Z,23.70
2022-10-26T11:18:56.781Z,24.00
2022-10-26T11:21:31.250Z,24.44
2022-10-26T11:24:15.123Z,24.91
2022-10-26T11:26:53.863Z,25.46
2022-10-26T11:29:35.196Z,26.04
2022-10-26T11:32:21.198Z,26.63
2022-10-26T11:34:58.278Z,27.14
2022-10-26T11:38:01.641Z,27.60
2022-10-26T11:40:46.940Z,28.06
2022-10-26T11:43:24.363Z,28.47
2022-10-26T11:46:16.564Z,28.83
2022-10-26T11:48:58.849Z,29.13
2022-10-26T11:52:02.838Z,29.34
2022-10-26T11:54:37.443Z,29.57
2022-10-26T11:57:05.226Z,29.72
2022-10-26T11:59:37.225Z,29.83
2022-10-26T12:02:14.669Z,29.92
2022-10-26T12:04:44.708Z,30.11
2022-10-26T12:07:20.067Z,30.30
2022-10-26T12:09:46.419Z,30.50
2022-10-26T12:12:29.929Z,30.66
2022-10-26T12:15:30.807Z,30.83
2022-10-26T12:18:13.206Z,30.99
2022-10-26T12:20:53.948Z,30.97
2022-10-26T12:23:33.892Z,31.01
2022-10-26T12:26:40.000Z,30.96
2022-10-26T12:29:06.252Z,31.03
2022-10-26T12:31:32.953Z,30.97
2022-10-26T12:34:00.311Z,30.79
2022-10-26T12:36:54.625Z,30.37
2022-10-26T12:39:31.895Z,29.95
2022-10-26T12:42:18.410Z,29.42
2022-10-26T12:44:47.300Z,29.04
2022-10-26T12:47:29.226Z,28.49
2022-10-26T12:50:19.621Z,28.01
2022-10-26T12:52:54.663Z,27.70
2022-10-26T12:55:50.533Z,27.35
2022-10-26T12:58:39.152Z,26.83
2022-10-26T13:01:06.544Z,26.56
2022-10-26T13:03:54.472Z,26.19
2022-10-26T13:06:39.786Z,25.89
2022-10-26T13:09:22.413Z,25.61
2022-10-26T13:11:52.662Z,25.46
2022-10-26T13:14:21.880Z,25.26
2022-10-26T13:16:48.673Z,25.13
2022-10-26T13:19:42.389Z,24.93
2022-10-26T13:22:16.106Z,24.86
2022-10-26T13:24:52.257Z,24.77
2022-10-26T13:27:18.491Z,24.71
2022-10-26T13:30:03.159Z,24.60
2022-10-26T13:32:39.048Z,24.59
2022-10-26T13:35:11.758Z,24.60
2022-10-26T13:37:44.998Z,24.59
2022-10-26T13:40:19.229Z,24.64
2022-10-26T13:42:49.387Z,24.65
2022-10-26T13:45:20.632Z,24.64
2022-10-26T13:47:52.465Z,24.65
2022-10-26T13:50:22.733Z,24.73
2022-10-26T13:52:53.277Z,24.84
2022-10-26T13:55:45.409Z,25.00
2022-10-26T13:58:38.486Z,25.30
2022-10-26T14:01:11.575Z,25.62
2022-10-26T14:03:38.588Z,26.05
2022-10-26T14:06:07.855Z,26.54
2022-10-26T14:08:34.219Z,26.93
2022-10-26T14:11:00.550Z,27.23
2022-10-26T14:13:29.243Z,27.37
2022-10-26T14:15:58.543Z,27.48
2022-10-26T14:18:28.064Z,27.52
2022-10-26T14:21:20.424Z,27.55
2022-10-26T14:23:55.964Z,27.69
2022-10-26T14:26:22.298Z,27.83
2022-10-26T14:28:51.780Z,28.00
2022-10-26T14:31:27.258Z,28.18
2022-10-26T14:33:57.348Z,28.40
2022-10-26T14:36:52.895Z,28.59
2022-10-26T14:39:43.689Z,28.82
2022-10-26T14:42:27.712Z,28.98
2022-10-26T14:44:54.837Z,29.07
2022-10-26T14:47:32.881Z,28.95
2022-10-26T14:52:34.456Z,28.53
2022-10-26T14:55:13.696Z,28.08
2022-10-26T14:57:42.153Z,27.73
2022-10-26T15:00:20.862Z,27.22
2022-10-26T15:02:50.315Z,26.83
2022-10-26T15:05:33.214Z,26.39
2022-10-26T15:08:03.129Z,25.96
2022-10-26T15:10:38.364Z,25.52
2022-10-26T15:13:24.575Z,25.14
2022-10-26T15:15:56.065Z,24.89
2022-10-26T15:18:24.429Z,24.61
2022-10-26T15:20:52.783Z,24.33
2022-10-26T15:23:24.733Z,24.08
2022-10-26T15:26:02.685Z,23.84
2022-10-26T15:28:30.569Z,23.69
2022-10-26T15:31:04.348Z,23.50
2022-10-26T15:33:31.925Z,23.36
2022-10-26T15:36:19.608Z,23.16
2022-10-26T15:38:48.185Z,23.07
2022-10-26T15:41:32.097Z,22.85
2022-10-26T15:44:01.376Z,22.76
2022-10-26T15:46:33.921Z,22.62
2022-10-26T15:49:03.493Z,22.52
2022-10-26T15:51:30.288Z,22.43
2022-10-26T15:54:02.849Z,22.31
2022-10-26T15:56:31.098Z,22.23
2022-10-26T15:58:58.253Z,22.12
2022-10-26T16:01:27.072Z,22.04
2022-10-26T16:03:54.253Z,21.95
2022-10-26T16:06:28.342Z,21.85
2022-10-26T16:08:58.023Z,21.77
2022-10-26T16:11:24.645Z,21.70
2022-10-26T16:16:22.312Z,21.54
2022-10-26T16:19:06.080Z,21.45
2022-10-26T16:24:17.689Z,21.33
2022-10-26T16:26:44.172Z,21.26
2022-10-26T16:29:10.697Z,21.18
2022-10-26T16:31:37.249Z,21.12
2022-10-26T16:34:04.362Z,21.06
2022-10-26T16:36:34.547Z,21.00
2022-10-26T16:41:28.742Z,20.88
2022-10-26T16:43:56.022Z,20.84
2022-10-26T16:46:22.557Z,20.80
2022-10-26T16:48:50.618Z,20.75
2022-10-26T16:51:20.121Z,20.70
2022-10-26T16:53:48.578Z,20.67
2022-10-26T16:56:18.372Z,20.63
2022-10-26T16:58:44.952Z,20.60
2022-10-26T17:01:13.429Z,20.56
2022-10-26T17:03:39.988Z,20.54
2022-10-26T17:06:07.711Z,20.51
2022-10-26T17:08:36.075Z,20.48
2022-10-26T17:11:03.986Z,20.44
2022-10-26T17:13:31.031Z,20.42
2022-10-26T17:16:10.129Z,20.35
2022-10-26T17:18:36.601Z,20.36
2022-10-26T17:21:02.957Z,20.33
2022-10-26T17:23:29.495Z,20.31
2022-10-26T17:26:01.035Z,20.25
2022-10-26T17:28:27.537Z,20.26
2022-10-26T17:31:05.703Z,20.21
2022-10-26T17:33:33.771Z,20.22
2022-10-26T17:36:01.465Z,20.19
2022-10-26T17:38:31.919Z,20.16
2022-10-26T17:41:06.605Z,20.12
2022-10-26T17:43:35.135Z,20.13
2022-10-26T17:46:03.845Z,20.11
2022-10-26T17:48:31.421Z,20.10
2022-10-26T17:50:59.472Z,20.07
2022-10-26T17:53:26.130Z,20.04
2022-10-26T17:56:04.385Z,19.99
2022-10-26T17:58:31.865Z,20.02
2022-10-26T18:01:03.354Z,19.98
2022-10-26T18:03:29.951Z,19.97
2022-10-26T18:05:56.490Z,19.95
2022-10-26T18:08:23.070Z,19.95
2022-10-26T18:10:51.851Z,19.95
2022-10-26T18:13:18.963Z,19.97
2022-10-26T18:15:45.916Z,19.98
2022-10-26T18:18:12.949Z,19.99
2022-10-26T18:20:39.446Z,20.00
2022-10-26T18:23:06.305Z,20.01
2022-10-26T18:25:33.750Z,20.02
2022-10-26T18:28:00.440Z,20.01
2022-10-26T18:30:27.131Z,20.00
2022-10-26T18:35:20.606Z,20.00
2022-10-26T18:37:47.238Z,19.98
2022-10-26T18:40:13.751Z,19.96
2022-10-26T18:42:40.272Z,19.96
2022-10-26T18:45:07.042Z,19.93
2022-10-26T18:47:33.625Z,19.93
2022-10-26T18:50:00.118Z,19.92
2022-10-26T18:52:29.807Z,19.92
2022-10-26T18:54:56.562Z,19.93
2022-10-26T18:57:26.971Z,19.93
2022-10-26T18:59:55.001Z,19.95
2022-10-26T19:02:22.673Z,19.97
2022-10-26T19:04:53.008Z,19.98
2022-10-26T19:07:19.770Z,19.99
2022-10-26T19:09:49.101Z,19.99
2022-10-26T19:12:15.620Z,19.98
2022-10-26T19:14:42.020Z,19.95
2022-10-26T19:17:08.937Z,19.92
2022-10-26T19:19:35.414Z,19.89
2022-10-26T19:22:02.068Z,19.86
2022-10-26T19:24:28.557Z,19.83
2022-10-26T19:26:56.517Z,19.78
2022-10-26T19:29:23.177Z,19.74
2022-10-26T19:31:52.693Z,19.69
2022-10-26T19:34:19.390Z,19.66
2022-10-26T19:36:47.072Z,19.62
2022-10-26T19:39:17.554Z,19.59
2022-10-26T19:41:45.311Z,19.53
2022-10-26T19:44:13.038Z,19.49
2022-10-26T19:46:39.806Z,19.45
2022-10-26T19:49:06.696Z,19.39
2022-10-26T19:51:33.205Z,19.35
2022-10-26T19:54:03.732Z,19.32
2022-10-26T19:56:31.901Z,19.25
2022-10-26T19:58:58.511Z,19.22
2022-10-26T20:01:25.238Z,19.16
2022-10-26T20:03:52.178Z,19.12
2022-10-26T20:06:19.135Z,19.07
2022-10-26T20:08:48.167Z,19.01
2022-10-26T20:11:16.637Z,18.97
2022-10-26T20:13:44.642Z,18.94
2022-10-26T20:16:12.099Z,18.89
2022-10-26T20:18:42.686Z,18.84
2022-10-26T20:21:15.976Z,18.80
2022-10-26T20:23:43.054Z,18.76
2022-10-26T20:26:16.480Z,18.71
2022-10-26T20:28:46.692Z,18.69
2022-10-26T20:31:13.409Z,18.66
2022-10-26T20:33:39.917Z,18.62
2022-10-26T20:36:06.824Z,18.59
2022-10-26T20:38:33.581Z,18.57
2022-10-26T20:41:01.908Z,18.54
2022-10-26T20:43:29.585Z,18.52
2022-10-26T20:45:56.407Z,18.49
2022-10-26T20:48:24.156Z,18.48
2022-10-26T20:51:04.950Z,18.43
2022-10-26T20:53:38.134Z,18.44
2022-10-26T20:56:07.279Z,18.44
2022-10-26T20:58:43.921Z,18.40
2022-10-26T21:01:34.381Z,18.38
2022-10-26T21:04:03.046Z,18.42
2022-10-26T21:06:32.193Z,18.40
2022-10-26T21:08:58.761Z,18.40
2022-10-26T21:11:26.143Z,18.39
2022-10-26T21:13:53.707Z,18.39
2022-10-26T21:18:51.733Z,18.38
2022-10-26T21:21:18.268Z,18.39
2022-10-26T21:23:45.078Z,18.38
2022-10-26T21:26:11.683Z,18.38
2022-10-26T21:28:45.644Z,18.35
2022-10-26T21:31:14.058Z,18.35
2022-10-26T21:33:40.786Z,18.36
2022-10-26T21:36:11.511Z,18.34
2022-10-26T21:38:38.984Z,18.35
2022-10-26T21:41:07.453Z,18.34
2022-10-26T21:43:35.137Z,18.34
2022-10-26T21:46:04.973Z,18.33
2022-10-26T21:48:32.618Z,18.33
2022-10-26T21:51:05.612Z,18.31
2022-10-26T21:53:32.008Z,18.30
2022-10-26T21:56:01.508Z,18.33
2022-10-26T21:58:29.178Z,18.32
2022-10-26T22:00:55.886Z,18.29
2022-10-26T22:03:22.455Z,18.27
2022-10-26T22:05:52.253Z,18.25
2022-10-26T22:08:18.768Z,18.25
2022-10-26T22:10:45.303Z,18.25
2022-10-26T22:13:11.824Z,18.23
2022-10-26T22:15:38.337Z,18.22
2022-10-26T22:18:04.849Z,18.20
2022-10-26T22:20:31.479Z,18.20
2022-10-26T22:22:58.000Z,18.17
2022-10-26T22:25:24.544Z,18.17
2022-10-26T22:27:51.276Z,18.15
2022-10-26T22:30:17.949Z,18.13
2022-10-26T22:32:44.483Z,18.10
2022-10-26T22:35:24.698Z,18.07
2022-10-26T22:37:55.889Z,18.06
2022-10-26T22:40:22.434Z,18.02
2022-10-26T22:42:51.684Z,18.00
2022-10-26T22:45:18.648Z,17.98
2022-10-26T22:47:45.153Z,17.96
2022-10-26T22:50:11.650Z,17.94
2022-10-26T22:52:38.262Z,17.93
2022-10-26T22:55:05.035Z,17.91
2022-10-26T22:57:32.021Z,17.90
2022-10-26T22:59:58.551Z,17.89
2022-10-26T23:02:25.090Z,17.88
2022-10-26T23:04:51.865Z,17.86
2022-10-26T23:07:18.398Z,17.86
2022-10-26T23:09:44.965Z,17.84
2022-10-26T23:12:11.549Z,17.81
2022-10-26T23:14:38.044Z,17.80
2022-10-26T23:17:06.160Z,17.79
2022-10-26T23:19:32.634Z,17.78
2022-10-26T23:21:59.175Z,17.77
2022-10-26T23:24:25.715Z,17.76
2022-10-26T23:26:52.185Z,17.75
2022-10-26T23:29:18.770Z,17.74
2022-10-26T23:31:45.249Z,17.73
2022-10-26T23:34:12.001Z,17.73
2022-10-26T23:36:38.477Z,17.73
2022-10-26T23:39:05.082Z,17.72
2022-10-26T23:41:31.510Z,17.71
2022-10-26T23:43:57.979Z,17.71
2022-10-26T23:46:24.412Z,17.70
2022-10-26T23:48:51.006Z,17.70
2022-10-26T23:51:17.413Z,17.72
2022-10-26T23:53:43.911Z,17.70
2022-10-26T23:56:10.406Z,17.70
2022-10-26T23:58:36.893Z,17.70
